createdAt,value
2023-03-29T00:22:56.348Z,26.11
2023-03-29T00:30:56.299Z,24.24
2023-03-29T00:38:56.197Z,31.78
2023-03-29T00:46:56.123Z,29.60
2023-03-29T00:54:56.042Z,27.06
2023-03-29T01:02:56.049Z,31.27
2023-03-29T01:10:55.887Z,27.87
2023-03-29T01:18:55.811Z,29.16
2023-03-29T01:26:55.741Z,33.79
2023-03-29T01:34:55.672Z,35.17
2023-03-29T01:42:55.606Z,28.79
2023-03-29T01:46:56.553Z,34.38
2023-03-29T01:50:56.517Z,30.19
2023-03-29T01:54:56.502Z,35.15
2023-03-29T01:58:56.433Z,31.45
2023-03-29T02:02:56.559Z,28.24
2023-03-29T02:06:56.381Z,35.05
2023-03-29T02:10:56.353Z,35.79
2023-03-29T02:14:56.291Z,34.58
2023-03-29T02:18:56.254Z,31.72
2023-03-29T02:22:56.210Z,39.17
2023-03-29T02:26:56.195Z,33.04
2023-03-29T02:30:56.161Z,34.14
2023-03-29T02:34:56.087Z,37.20
2023-03-29T02:38:56.052Z,31.97
2023-03-29T02:42:56.052Z,32.52
2023-03-29T02:46:56.053Z,36.78
2023-03-29T02:50:55.931Z,36.78
2023-03-29T02:54:56.028Z,26.57
2023-03-29T02:58:55.895Z,34.50
2023-03-29T03:02:55.929Z,31.99
2023-03-29T03:06:56.037Z,35.04
2023-03-29T03:10:56.524Z,34.89
2023-03-29T03:14:55.742Z,33.68
2023-03-29T03:18:55.738Z,31.22
2023-03-29T03:22:55.695Z,34.05
2023-03-29T03:26:55.676Z,34.13
2023-03-29T03:30:55.702Z,34.22
2023-03-29T03:34:55.674Z,28.85
2023-03-29T03:38:55.670Z,30.19
2023-03-29T03:42:55.647Z,30.29
2023-03-29T03:46:55.657Z,34.32
2023-03-29T03:50:56.536Z,34.06
2023-03-29T03:54:55.612Z,26.03
2023-03-29T03:58:55.611Z,32.65
2023-03-29T04:02:55.738Z,26.98
2023-03-29T04:10:54.550Z,32.23
2023-03-29T04:14:55.528Z,32.28
2023-03-29T04:18:55.563Z,33.83
2023-03-29T04:22:55.432Z,34.34
2023-03-29T04:26:55.391Z,32.97
2023-03-29T04:30:55.366Z,32.62
2023-03-29T04:34:55.348Z,29.06
2023-03-29T04:38:55.286Z,32.54
2023-03-29T04:42:55.573Z,31.09
2023-03-29T04:46:55.335Z,33.33
2023-03-29T04:50:55.281Z,33.30
2023-03-29T04:54:55.128Z,33.63
2023-03-29T04:58:55.124Z,31.78
2023-03-29T05:02:55.193Z,34.69
2023-03-29T05:06:55.152Z,29.11
2023-03-29T05:10:55.112Z,32.82
2023-03-29T05:14:55.568Z,32.97
2023-03-29T05:18:55.114Z,33.82
2023-03-29T05:22:55.682Z,32.86
2023-03-29T05:26:55.585Z,31.50
2023-03-29T05:30:55.574Z,32.99
2023-03-29T05:34:55.573Z,32.85
2023-03-29T05:38:55.119Z,39.14
2023-03-29T05:42:55.096Z,46.90
2023-03-29T05:46:55.098Z,54.66
2023-03-29T05:50:55.133Z,78.94
2023-03-29T05:54:54.670Z,89.81
2023-03-29T05:58:56.113Z,90.72
2023-03-29T06:02:57.624Z,108.24
2023-03-29T06:06:55.178Z,111.41
2023-03-29T06:10:54.612Z,116.20
2023-03-29T06:14:54.589Z,114.90
2023-03-29T06:18:54.609Z,116.25
2023-03-29T06:22:54.603Z,113.30
2023-03-29T06:26:54.636Z,104.22
2023-03-29T06:30:54.669Z,109.26
2023-03-29T06:34:54.628Z,106.56
2023-03-29T06:38:54.605Z,104.47
2023-03-29T06:42:54.655Z,103.95
2023-03-29T06:46:54.636Z,102.29
2023-03-29T06:50:57.794Z,95.06
2023-03-29T06:54:54.701Z,96.52
2023-03-29T06:58:54.634Z,88.13
2023-03-29T07:02:54.642Z,85.24
2023-03-29T07:06:54.611Z,84.42
2023-03-29T07:10:54.654Z,79.11
2023-03-29T07:14:54.635Z,74.76
2023-03-29T07:18:54.622Z,75.47
2023-03-29T07:22:54.778Z,70.68
2023-03-29T07:27:04.184Z,68.55
2023-03-29T07:30:55.012Z,75.62
2023-03-29T07:34:54.455Z,78.68
2023-03-29T07:38:56.368Z,82.17
2023-03-29T07:42:54.400Z,116.36
2023-03-29T07:46:54.252Z,152.63
2023-03-29T07:50:54.219Z,180.66
2023-03-29T07:54:53.626Z,204.51
2023-03-29T07:58:54.183Z,224.59
2023-03-29T08:02:54.734Z,8.88
2023-03-29T08:06:54.626Z,27.30
2023-03-29T08:10:54.631Z,63.76
2023-03-29T08:14:54.656Z,50.46
2023-03-29T08:18:54.668Z,45.45
2023-03-29T08:22:54.654Z,53.90
2023-03-29T08:26:54.425Z,31.71
2023-03-29T08:30:54.681Z,25.00
2023-03-29T08:34:55.214Z,68.94
2023-03-29T08:38:55.184Z,57.99
2023-03-29T08:42:55.664Z,122.54
2023-03-29T08:46:55.753Z,254.95
2023-03-29T08:50:56.198Z,250.13
2023-03-29T08:54:55.650Z,250.00
2023-03-29T08:58:55.658Z,250.01
2023-03-29T09:06:55.240Z,250.00
2023-03-29T09:10:56.057Z,250.00
2023-03-29T09:18:55.660Z,249.77
2023-03-29T09:26:55.664Z,250.00
2023-03-29T09:30:56.664Z,249.07
2023-03-29T09:38:55.893Z,248.63
2023-03-29T09:46:55.669Z,248.05
2023-03-29T09:54:55.702Z,247.82
2023-03-29T10:02:55.415Z,249.05
2023-03-29T10:10:55.704Z,250.23
2023-03-29T10:18:55.187Z,250.00
2023-03-29T10:26:55.213Z,248.73
2023-03-29T10:30:56.183Z,249.80
2023-03-29T10:38:55.151Z,83.17
2023-03-29T10:42:56.295Z,61.55
2023-03-29T10:46:56.684Z,107.00
2023-03-29T10:50:56.686Z,136.03
2023-03-29T10:54:56.723Z,143.42
2023-03-29T10:58:56.727Z,159.22
2023-03-29T11:06:56.201Z,182.71
2023-03-29T11:14:56.185Z,185.59
2023-03-29T11:18:57.191Z,187.45
2023-03-29T11:26:56.699Z,188.21
2023-03-29T11:34:56.697Z,193.57
2023-03-29T11:42:56.202Z,194.03
2023-03-29T11:50:56.217Z,195.85
2023-03-29T11:54:57.093Z,196.90
2023-03-29T11:58:57.211Z,196.82
2023-03-29T12:02:57.306Z,176.11
2023-03-29T12:10:56.223Z,174.90
2023-03-29T12:18:57.242Z,46.08
2023-03-29T12:26:56.533Z,81.85
2023-03-29T12:34:57.246Z,129.26
2023-03-29T12:38:58.223Z,143.59
2023-03-29T12:46:57.116Z,165.82
2023-03-29T17:38:56.097Z,138.59
2023-03-29T17:46:56.040Z,137.82
2023-03-29T17:54:55.943Z,139.73
2023-03-29T18:02:55.938Z,138.43
2023-03-29T18:10:55.926Z,137.07
2023-03-29T18:18:55.829Z,136.45
2023-03-29T18:26:55.780Z,136.66
2023-03-29T18:30:56.714Z,135.77
2023-03-29T18:34:56.689Z,139.25
2023-03-29T18:38:56.647Z,137.52
2023-03-29T18:46:56.053Z,133.65
2023-03-29T18:54:56.240Z,136.26
2023-03-29T19:02:56.274Z,131.85
2023-03-29T19:10:56.091Z,134.04
2023-03-29T19:14:57.083Z,131.10
2023-03-29T19:18:57.018Z,132.96
2023-03-29T19:22:56.981Z,132.37
2023-03-29T19:26:56.952Z,132.01
2023-03-29T19:30:57.191Z,131.02
2023-03-29T19:34:57.286Z,130.50
2023-03-29T19:38:57.257Z,128.14
2023-03-29T19:42:57.212Z,127.61
2023-03-29T19:46:57.228Z,127.97
2023-03-29T19:50:57.145Z,131.19
2023-03-29T19:54:57.130Z,128.64
2023-03-29T19:58:57.063Z,129.62
2023-03-29T20:02:57.221Z,125.62
2023-03-29T20:06:57.102Z,127.69
2023-03-29T20:10:57.064Z,126.85
2023-03-29T20:14:57.058Z,124.43
2023-03-29T20:18:57.047Z,124.88
2023-03-29T20:22:56.970Z,121.93
2023-03-29T20:26:56.939Z,122.26
2023-03-29T20:30:56.919Z,125.35
2023-03-29T20:34:57.029Z,124.25
2023-03-29T20:38:57.173Z,123.20
2023-03-29T20:42:57.375Z,120.52
2023-03-29T20:46:57.584Z,122.24
2023-03-29T20:50:57.926Z,123.09
2023-03-29T20:54:58.443Z,119.93
2023-03-29T20:58:58.152Z,120.08
2023-03-29T21:02:58.444Z,118.44
2023-03-29T21:06:59.425Z,120.07
2023-03-29T21:10:58.269Z,117.60
2023-03-29T21:14:58.241Z,117.46
2023-03-29T21:18:58.203Z,114.62
2023-03-29T21:22:58.195Z,113.47
2023-03-29T21:26:58.128Z,114.19
2023-03-29T21:30:58.146Z,114.73
2023-03-29T21:34:58.066Z,115.26
2023-03-29T21:38:58.052Z,113.77
2023-03-29T21:42:58.136Z,113.89
2023-03-29T21:46:58.204Z,112.55
2023-03-29T21:50:58.275Z,115.02
2023-03-29T21:54:58.384Z,111.43
2023-03-29T21:58:58.438Z,108.42
2023-03-29T22:02:58.564Z,109.40
2023-03-29T22:06:58.661Z,111.21
2023-03-29T22:10:58.794Z,110.54
2023-03-29T22:14:58.930Z,112.75
2023-03-29T22:18:59.021Z,106.48
2023-03-29T22:22:59.148Z,106.23
2023-03-29T22:26:59.248Z,107.75
2023-03-29T22:30:59.308Z,108.86
2023-03-29T22:34:59.429Z,109.44
2023-03-29T22:38:59.516Z,108.49
2023-03-29T22:42:59.563Z,107.66
2023-03-29T22:46:59.638Z,106.41
2023-03-29T22:50:59.728Z,103.53
2023-03-29T22:54:59.914Z,104.12
2023-03-29T22:59:00.096Z,106.06
2023-03-29T23:03:00.230Z,103.53
2023-03-29T23:07:00.315Z,103.57
2023-03-29T23:56:50.568Z,25.00
